Terminal Aerodrome Forecast
Issued by NWS

Home | Current Version | Previous Version | Text Only | Print | Product List | Glossary On
Versions: 1 2 3 4 5 6 7 8 9 10 11 12 13 14 15 16
541
FTUS46 KSGX 202332
TAFONT
TAF
KONT 202332Z 2100/2206 25015G25KT 6SM -SHRA BR SCT015 BKN025
     FM210600 28013G20KT 6SM BR VCSH SCT025 OVC150
     FM211400 VRB05KT P6SM SCT025 BKN050
     FM211900 24007KT P6SM BKN050=

USA.gov is the U.S. government's official web portal to all federal, state and local government web resources and services.